createdAt,value
2023-12-09T00:03:19.728Z,10.07
2023-12-09T00:08:16.122Z,9.63
2023-12-09T00:13:12.534Z,10.07
2023-12-09T00:18:09.424Z,9.75
2023-12-09T00:23:05.876Z,10.15
2023-12-09T00:28:02.950Z,10.43
2023-12-09T00:32:59.578Z,10.57
2023-12-09T00:37:56.034Z,11.18
2023-12-09T00:42:52.449Z,10.15
2023-12-09T00:47:48.977Z,9.93
2023-12-09T00:52:45.433Z,10.77
2023-12-09T00:57:41.922Z,9.90
2023-12-09T01:02:41.102Z,11.10
2023-12-09T01:07:37.764Z,9.90
2023-12-09T01:12:34.257Z,10.40
2023-12-09T01:17:30.672Z,10.48
2023-12-09T01:22:27.480Z,9.25
2023-12-09T01:27:24.085Z,9.65
2023-12-09T01:32:20.511Z,9.32
2023-12-09T01:37:16.857Z,10.77
2023-12-09T01:42:13.269Z,9.00
2023-12-09T01:47:09.775Z,8.35
2023-12-09T01:52:06.613Z,8.65
2023-12-09T01:57:03.490Z,7.88
2023-12-09T02:02:00.271Z,8.35
2023-12-09T02:06:56.711Z,8.45
2023-12-09T02:12:07.603Z,7.85
2023-12-09T02:17:35.449Z,8.35
2023-12-09T02:22:31.864Z,7.63
2023-12-09T02:27:41.241Z,7.35
2023-12-09T02:32:39.458Z,6.80
2023-12-09T02:37:37.928Z,6.50
2023-12-09T02:42:34.494Z,6.30
2023-12-09T02:47:31.280Z,5.65
2023-12-09T02:52:28.162Z,6.65
2023-12-09T02:57:24.780Z,6.50
2023-12-09T03:02:21.172Z,5.53
2023-12-09T03:07:21.432Z,6.13
2023-12-09T03:12:17.911Z,5.88
2023-12-09T03:17:14.321Z,5.93
2023-12-09T03:22:11.020Z,5.07
2023-12-09T03:27:07.418Z,5.35
2023-12-09T03:32:04.005Z,5.80
2023-12-09T03:37:00.331Z,4.68
2023-12-09T03:41:56.694Z,5.63
2023-12-09T03:46:53.064Z,4.45
2023-12-09T03:51:49.415Z,4.28
2023-12-09T03:56:45.953Z,4.97
2023-12-09T04:01:49.762Z,5.78
2023-12-09T04:06:46.656Z,4.60
2023-12-09T04:11:44.471Z,3.97
2023-12-09T04:16:43.459Z,4.43
2023-12-09T04:21:39.896Z,3.88
2023-12-09T04:26:36.234Z,3.88
2023-12-09T04:31:32.589Z,3.50
2023-12-09T04:36:28.977Z,3.30
2023-12-09T04:41:25.377Z,3.58
2023-12-09T04:46:21.917Z,3.38
2023-12-09T04:51:18.391Z,3.20
2023-12-09T04:56:14.909Z,4.22
2023-12-09T05:01:11.255Z,2.85
2023-12-09T05:06:09.359Z,3.67
2023-12-09T05:11:05.863Z,3.13
2023-12-09T05:16:03.126Z,2.60
2023-12-09T05:20:59.559Z,3.30
2023-12-09T05:25:56.218Z,2.95
2023-12-09T05:30:52.574Z,2.53
2023-12-09T05:35:49.203Z,2.92
2023-12-09T05:40:45.584Z,3.15
2023-12-09T05:45:42.269Z,3.03
2023-12-09T05:50:38.857Z,4.28
2023-12-09T05:55:35.266Z,2.53
2023-12-09T06:00:33.351Z,3.28
2023-12-09T06:05:31.127Z,2.75
2023-12-09T06:10:27.545Z,2.78
2023-12-09T06:15:23.967Z,3.17
2023-12-09T06:20:20.354Z,3.30
2023-12-09T06:25:16.803Z,2.60
2023-12-09T06:30:13.618Z,2.83
2023-12-09T06:35:10.122Z,3.08
2023-12-09T06:40:07.224Z,4.10
2023-12-09T06:45:04.153Z,2.65
2023-12-09T06:50:00.487Z,2.60
2023-12-09T06:54:57.082Z,2.63
2023-12-09T06:59:53.442Z,2.95
2023-12-09T07:04:49.890Z,3.15
2023-12-09T07:09:46.263Z,3.03
2023-12-09T07:14:42.616Z,2.83
2023-12-09T07:19:39.257Z,3.92
2023-12-09T07:24:35.793Z,3.40
2023-12-09T07:29:32.540Z,2.30
2023-12-09T07:34:29.108Z,4.05
2023-12-09T07:39:25.617Z,3.63
2023-12-09T07:44:22.054Z,3.30
2023-12-09T07:49:18.476Z,3.30
2023-12-09T07:54:14.917Z,3.28
2023-12-09T07:59:11.365Z,3.25
2023-12-09T08:04:07.927Z,3.40
2023-12-09T08:09:04.425Z,3.70
2023-12-09T08:14:00.892Z,4.57
2023-12-09T08:18:57.449Z,3.45
2023-12-09T08:23:55.438Z,3.78
2023-12-09T08:28:51.844Z,3.33
2023-12-09T08:33:48.440Z,2.50
2023-12-09T08:38:44.819Z,4.38
2023-12-09T08:43:41.628Z,3.30
2023-12-09T08:48:38.300Z,3.22
2023-12-09T08:53:34.888Z,3.05
2023-12-09T08:58:31.267Z,3.65
2023-12-09T09:03:28.255Z,3.90
2023-12-09T09:08:24.686Z,3.35
2023-12-09T09:13:21.027Z,3.13
2023-12-09T09:18:18.507Z,3.78
2023-12-09T09:23:15.042Z,3.70
2023-12-09T09:28:11.391Z,3.38
2023-12-09T09:33:08.528Z,3.33
2023-12-09T09:38:05.015Z,2.75
2023-12-09T09:43:08.124Z,3.30
2023-12-09T09:48:08.519Z,4.03
2023-12-09T09:53:08.639Z,2.83
2023-12-09T09:58:05.249Z,3.30
2023-12-09T10:03:04.339Z,3.00
2023-12-09T10:08:01.613Z,2.80
2023-12-09T10:12:58.139Z,2.38
2023-12-09T10:18:01.325Z,2.67
2023-12-09T10:23:00.474Z,2.47
2023-12-09T10:27:58.479Z,2.50
2023-12-09T10:32:55.269Z,1.90
2023-12-09T10:37:51.863Z,1.90
2023-12-09T10:42:48.223Z,1.88
2023-12-09T10:47:44.860Z,1.92
2023-12-09T10:52:41.302Z,2.88
2023-12-09T10:57:39.383Z,1.80
2023-12-09T11:02:36.552Z,1.70
2023-12-09T11:07:35.373Z,1.65
2023-12-09T11:12:32.251Z,1.30
2023-12-09T11:17:37.035Z,1.75
2023-12-09T11:22:37.691Z,1.90
2023-12-09T11:27:39.867Z,1.10
2023-12-09T11:32:36.971Z,1.85
2023-12-09T11:37:33.563Z,1.20
2023-12-09T11:42:32.354Z,1.10
2023-12-09T11:47:29.010Z,1.90
2023-12-09T11:52:25.615Z,1.83
2023-12-09T11:57:22.109Z,1.60
2023-12-09T12:02:18.470Z,2.55
2023-12-09T12:07:14.857Z,0.82
2023-12-09T12:12:11.338Z,1.58
2023-12-09T12:17:07.749Z,2.20
2023-12-09T12:22:05.202Z,1.48
2023-12-09T12:27:01.589Z,1.77
2023-12-09T12:31:57.965Z,1.73
2023-12-09T12:36:54.887Z,1.55
2023-12-09T12:41:51.541Z,1.52
2023-12-09T12:46:47.967Z,2.13
2023-12-09T12:51:44.702Z,1.95
2023-12-09T12:56:41.079Z,2.60
2023-12-09T13:01:37.558Z,2.05
2023-12-09T13:06:34.075Z,2.35
2023-12-09T13:11:31.086Z,2.35
2023-12-09T13:16:28.364Z,2.83
2023-12-09T13:21:24.742Z,1.73
2023-12-09T13:26:21.149Z,2.60
2023-12-09T13:31:18.060Z,2.05
2023-12-09T13:36:14.531Z,2.10
2023-12-09T13:41:11.019Z,2.97
2023-12-09T13:46:07.681Z,2.00
2023-12-09T13:51:05.941Z,2.05
2023-12-09T13:56:05.009Z,1.65
2023-12-09T14:01:02.600Z,1.88
2023-12-09T14:05:59.042Z,2.83
2023-12-09T14:10:55.387Z,3.10
2023-12-09T14:15:52.516Z,2.65
2023-12-09T14:20:48.879Z,3.10
2023-12-09T14:25:45.472Z,3.17
2023-12-09T14:30:41.844Z,3.85
2023-12-09T14:35:38.390Z,4.03
2023-12-09T14:40:34.840Z,3.60
2023-12-09T14:45:31.217Z,4.25
2023-12-09T14:50:28.273Z,3.75
2023-12-09T14:55:24.678Z,3.83
2023-12-09T15:00:21.425Z,3.58
2023-12-09T15:05:18.074Z,4.03
2023-12-09T15:10:14.850Z,4.50
2023-12-09T15:15:11.965Z,4.85
2023-12-09T15:20:10.175Z,5.30
2023-12-09T15:25:07.062Z,5.38
2023-12-09T15:30:05.518Z,4.88
2023-12-09T15:35:01.965Z,4.70
2023-12-09T15:39:58.475Z,5.18
2023-12-09T15:44:55.137Z,5.30
2023-12-09T15:49:51.541Z,6.53
2023-12-09T15:54:48.016Z,5.25
2023-12-09T15:59:44.360Z,5.35
2023-12-09T16:04:40.747Z,4.72
2023-12-09T16:09:41.151Z,4.90
2023-12-09T16:14:41.247Z,5.40
2023-12-09T16:19:37.794Z,4.75
2023-12-09T16:24:34.446Z,4.97
2023-12-09T16:29:30.951Z,4.95
2023-12-09T16:34:27.395Z,4.43
2023-12-09T16:39:23.844Z,5.10
2023-12-09T16:44:20.282Z,3.33
2023-12-09T16:49:16.742Z,4.22
2023-12-09T16:54:13.186Z,3.45
2023-12-09T16:59:11.954Z,3.45
2023-12-09T17:04:09.253Z,3.20
2023-12-09T17:09:05.853Z,3.05
2023-12-09T17:14:02.224Z,4.10
2023-12-09T17:18:59.124Z,2.78
2023-12-09T17:23:55.612Z,3.47
2023-12-09T17:28:51.976Z,3.00
2023-12-09T17:33:48.405Z,2.67
2023-12-09T17:38:44.848Z,3.03
2023-12-09T17:43:41.276Z,1.92
2023-12-09T17:48:38.748Z,1.65
2023-12-09T17:53:36.092Z,2.97
2023-12-09T17:58:33.412Z,1.85
2023-12-09T18:03:30.566Z,1.40
2023-12-09T18:08:27.123Z,1.30
2023-12-09T18:13:23.485Z,1.25
2023-12-09T18:18:20.104Z,1.58
2023-12-09T18:23:16.533Z,1.83
2023-12-09T18:28:13.174Z,1.05
2023-12-09T18:33:09.645Z,1.17
2023-12-09T18:38:06.129Z,1.02
2023-12-09T18:43:02.719Z,0.90
2023-12-09T18:47:59.837Z,0.70
2023-12-09T18:52:56.741Z,0.52
2023-12-09T18:57:53.226Z,0.55
2023-12-09T19:02:49.592Z,0.60
2023-12-09T19:07:46.040Z,0.50
2023-12-09T19:12:42.489Z,0.50
2023-12-09T19:17:38.991Z,0.70
2023-12-09T19:22:35.610Z,0.70
2023-12-09T19:27:32.128Z,0.80
2023-12-09T19:32:28.926Z,1.10
2023-12-09T19:37:25.495Z,0.70
2023-12-09T19:42:23.021Z,0.75
2023-12-09T19:47:19.487Z,0.77
2023-12-09T19:52:15.819Z,0.60
2023-12-09T19:57:12.259Z,0.70
2023-12-09T20:02:08.709Z,0.52
2023-12-09T20:07:05.291Z,0.80
2023-12-09T20:12:01.788Z,0.70
2023-12-09T20:16:58.115Z,0.95
2023-12-09T20:21:54.494Z,0.70
2023-12-09T20:26:50.901Z,0.80
2023-12-09T20:31:47.295Z,0.90
2023-12-09T20:36:43.813Z,0.90
2023-12-09T20:41:40.227Z,0.65
2023-12-09T20:46:36.883Z,0.70
2023-12-09T20:51:33.465Z,1.10
2023-12-09T20:56:29.921Z,0.90
2023-12-09T21:01:26.261Z,0.80
2023-12-09T21:06:22.632Z,1.20
2023-12-09T21:11:22.471Z,1.23
2023-12-09T21:16:18.943Z,1.33
2023-12-09T21:21:15.395Z,1.77
2023-12-09T21:26:12.052Z,3.25
2023-12-09T21:31:12.230Z,3.33
2023-12-09T21:36:13.741Z,3.65
2023-12-09T21:41:19.095Z,3.33
2023-12-09T21:46:20.999Z,3.00
2023-12-09T21:51:18.761Z,5.65
2023-12-09T21:56:26.017Z,4.57
2023-12-09T22:01:22.566Z,5.30
2023-12-09T22:06:20.681Z,5.93
2023-12-09T22:11:18.403Z,6.22
2023-12-09T22:16:19.226Z,9.20
2023-12-09T22:21:15.963Z,10.30
2023-12-09T22:26:12.406Z,10.95
2023-12-09T22:31:09.514Z,11.98
2023-12-09T22:36:07.639Z,10.63
2023-12-09T22:41:04.385Z,9.63
2023-12-09T22:46:00.882Z,8.60
2023-12-09T22:50:57.260Z,9.40
2023-12-09T22:56:11.827Z,6.88
2023-12-09T23:01:11.233Z,5.00
2023-12-09T23:06:08.371Z,5.07
2023-12-09T23:11:05.980Z,5.00
2023-12-09T23:16:02.686Z,4.05
2023-12-09T23:20:59.162Z,4.13
2023-12-09T23:25:55.606Z,4.32
2023-12-09T23:30:53.666Z,3.67
2023-12-09T23:35:50.475Z,4.30
2023-12-09T23:40:46.912Z,4.75
2023-12-09T23:45:43.979Z,3.17
2023-12-09T23:50:40.447Z,2.58
2023-12-09T23:55:36.868Z,3.33
